sensor_id;sensor_type;location;lat;lon;timestamp;pressure;altitude;pressure_sealevel;temperature;humidity
18858;BME280;9558;50.178;8.370;2022-11-20T00:00:01;97764.91;;;2.65;100.00
18858;BME280;9558;50.178;8.370;2022-11-20T00:02:27;97765.03;;;2.64;100.00
18858;BME280;9558;50.178;8.370;2022-11-20T00:04:54;97761.69;;;2.63;100.00
18858;BME280;9558;50.178;8.370;2022-11-20T00:07:22;97758.03;;;2.66;100.00
18858;BME280;9558;50.178;8.370;2022-11-20T00:09:48;97751.63;;;2.62;100.00
18858;BME280;9558;50.178;8.370;2022-11-20T00:12:15;97755.09;;;2.61;100.00
18858;BME280;9558;50.178;8.370;2022-11-20T00:14:41;97767.19;;;2.58;100.00
18858;BME280;9558;50.178;8.370;2022-11-20T00:17:08;97769.50;;;2.62;100.00
18858;BME280;9558;50.178;8.370;2022-11-20T00:19:34;97762.34;;;2.55;100.00
18858;BME280;9558;50.178;8.370;2022-11-20T00:22:00;97757.78;;;2.49;100.00
18858;BME280;9558;50.178;8.370;2022-11-20T00:24:28;97751.31;;;2.45;100.00
18858;BME280;9558;50.178;8.370;2022-11-20T00:26:55;97746.63;;;2.40;100.00
18858;BME280;9558;50.178;8.370;2022-11-20T00:29:21;97744.88;;;2.41;100.00
18858;BME280;9558;50.178;8.370;2022-11-20T00:31:48;97745.69;;;2.41;100.00
18858;BME280;9558;50.178;8.370;2022-11-20T00:34:14;97744.72;;;2.42;100.00
18858;BME280;9558;50.178;8.370;2022-11-20T00:36:40;97732.78;;;2.43;100.00
18858;BME280;9558;50.178;8.370;2022-11-20T00:39:07;97741.78;;;2.47;100.00
18858;BME280;9558;50.178;8.370;2022-11-20T00:41:35;97734.94;;;2.48;100.00
18858;BME280;9558;50.178;8.370;2022-11-20T00:44:01;97734.66;;;2.51;100.00
18858;BME280;9558;50.178;8.370;2022-11-20T00:46:28;97736.16;;;2.53;100.00
18858;BME280;9558;50.178;8.370;2022-11-20T00:48:54;97734.38;;;2.54;100.00
18858;BME280;9558;50.178;8.370;2022-11-20T00:51:22;97729.28;;;2.54;100.00
18858;BME280;9558;50.178;8.370;2022-11-20T00:53:49;97733.59;;;2.53;100.00
18858;BME280;9558;50.178;8.370;2022-11-20T00:56:18;97714.78;;;2.54;100.00
18858;BME280;9558;50.178;8.370;2022-11-20T00:58:48;97725.25;;;2.51;100.00
18858;BME280;9558;50.178;8.370;2022-11-20T01:01:16;97733.88;;;2.50;100.00
18858;BME280;9558;50.178;8.370;2022-11-20T01:03:45;97728.75;;;2.50;100.00
18858;BME280;9558;50.178;8.370;2022-11-20T01:06:14;97728.75;;;2.50;100.00
18858;BME280;9558;50.178;8.370;2022-11-20T01:08:41;97719.75;;;2.46;100.00
18858;BME280;9558;50.178;8.370;2022-11-20T01:11:10;97726.44;;;2.47;100.00
18858;BME280;9558;50.178;8.370;2022-11-20T01:13:37;97731.69;;;2.46;100.00
18858;BME280;9558;50.178;8.370;2022-11-20T01:16:07;97735.06;;;2.46;100.00
18858;BME280;9558;50.178;8.370;2022-11-20T01:18:35;97727.69;;;2.43;100.00
18858;BME280;9558;50.178;8.370;2022-11-20T01:21:03;97731.81;;;2.44;100.00
18858;BME280;9558;50.178;8.370;2022-11-20T01:23:31;97729.28;;;2.44;100.00
18858;BME280;9558;50.178;8.370;2022-11-20T01:26:00;97730.91;;;2.45;100.00
18858;BME280;9558;50.178;8.370;2022-11-20T01:28:26;97736.00;;;2.45;100.00
18858;BME280;9558;50.178;8.370;2022-11-20T01:30:53;97736.94;;;2.44;100.00
18858;BME280;9558;50.178;8.370;2022-11-20T01:33:20;97731.03;;;2.44;100.00
18858;BME280;9558;50.178;8.370;2022-11-20T01:35:47;97736.00;;;2.45;100.00
18858;BME280;9558;50.178;8.370;2022-11-20T01:38:14;97728.63;;;2.42;100.00
18858;BME280;9558;50.178;8.370;2022-11-20T01:40:41;97723.09;;;2.37;100.00
18858;BME280;9558;50.178;8.370;2022-11-20T01:43:13;97736.94;;;2.34;100.00
18858;BME280;9558;50.178;8.370;2022-11-20T01:46:08;97730.09;;;2.35;100.00
18858;BME280;9558;50.178;8.370;2022-11-20T01:48:42;97721.50;;;2.36;100.00
18858;BME280;9558;50.178;8.370;2022-11-20T01:51:15;97723.38;;;2.34;100.00
18858;BME280;9558;50.178;8.370;2022-11-20T01:53:43;97735.19;;;2.35;100.00
18858;BME280;9558;50.178;8.370;2022-11-20T01:56:11;97727.81;;;2.32;100.00
18858;BME280;9558;50.178;8.370;2022-11-20T01:58:43;97726.31;;;2.29;100.00
18858;BME280;9558;50.178;8.370;2022-11-20T02:01:11;97722.00;;;2.30;100.00
18858;BME280;9558;50.178;8.370;2022-11-20T02:03:39;97719.59;;;2.28;100.00
18858;BME280;9558;50.178;8.370;2022-11-20T02:06:11;97711.13;;;2.28;100.00
18858;BME280;9558;50.178;8.370;2022-11-20T02:08:39;97716.38;;;2.26;100.00
18858;BME280;9558;50.178;8.370;2022-11-20T02:11:05;97706.69;;;2.20;100.00
18858;BME280;9558;50.178;8.370;2022-11-20T02:13:33;97703.47;;;2.18;100.00
18858;BME280;9558;50.178;8.370;2022-11-20T02:16:14;97708.03;;;2.14;100.00
18858;BME280;9558;50.178;8.370;2022-11-20T02:18:43;97712.75;;;2.09;100.00
18858;BME280;9558;50.178;8.370;2022-11-20T02:21:19;97714.59;;;2.07;100.00
18858;BME280;9558;50.178;8.370;2022-11-20T02:24:09;97706.94;;;2.07;100.00
18858;BME280;9558;50.178;8.370;2022-11-20T02:26:42;97709.63;;;2.05;100.00
18858;BME280;9558;50.178;8.370;2022-11-20T02:29:10;97700.47;;;2.03;100.00
18858;BME280;9558;50.178;8.370;2022-11-20T02:31:38;97705.59;;;2.03;100.00
18858;BME280;9558;50.178;8.370;2022-11-20T02:34:06;97700.47;;;2.03;100.00
18858;BME280;9558;50.178;8.370;2022-11-20T02:36:34;97691.91;;;2.04;100.00
18858;BME280;9558;50.178;8.370;2022-11-20T02:39:02;97694.44;;;2.04;100.00
18858;BME280;9558;50.178;8.370;2022-11-20T02:41:35;97693.53;;;2.05;100.00
18858;BME280;9558;50.178;8.370;2022-11-20T02:44:03;97702.94;;;2.04;100.00
18858;BME280;9558;50.178;8.370;2022-11-20T02:46:30;97698.63;;;2.05;100.00
18858;BME280;9558;50.178;8.370;2022-11-20T02:48:56;97698.63;;;2.05;100.00
18858;BME280;9558;50.178;8.370;2022-11-20T02:51:23;97693.94;;;2.10;100.00
18858;BME280;9558;50.178;8.370;2022-11-20T02:53:50;97683.59;;;2.12;100.00
18858;BME280;9558;50.178;8.370;2022-11-20T02:56:16;97689.34;;;2.14;100.00
18858;BME280;9558;50.178;8.370;2022-11-20T02:58:44;97682.50;;;2.14;100.00
18858;BME280;9558;50.178;8.370;2022-11-20T03:01:10;97686.28;;;2.10;100.00
18858;BME280;9558;50.178;8.370;2022-11-20T03:03:37;97693.25;;;2.08;100.00
18858;BME280;9558;50.178;8.370;2022-11-20T03:06:04;97693.25;;;2.08;100.00
18858;BME280;9558;50.178;8.370;2022-11-20T03:08:30;97691.63;;;2.07;100.00
18858;BME280;9558;50.178;8.370;2022-11-20T03:11:02;97694.88;;;2.09;100.00
18858;BME280;9558;50.178;8.370;2022-11-20T03:13:29;97694.88;;;2.09;100.00
18858;BME280;9558;50.178;8.370;2022-11-20T03:15:56;97694.88;;;2.09;100.00
18858;BME280;9558;50.178;8.370;2022-11-20T03:18:23;97693.94;;;2.10;100.00
18858;BME280;9558;50.178;8.370;2022-11-20T03:20:57;97698.91;;;2.12;100.00
18858;BME280;9558;50.178;8.370;2022-11-20T03:23:23;97694.59;;;2.12;100.00
18858;BME280;9558;50.178;8.370;2022-11-20T03:25:49;97690.44;;;2.11;100.00
18858;BME280;9558;50.178;8.370;2022-11-20T03:28:16;97694.59;;;2.12;100.00
18858;BME280;9558;50.178;8.370;2022-11-20T03:30:42;97690.28;;;2.13;100.00
18858;BME280;9558;50.178;8.370;2022-11-20T03:33:10;97691.13;;;2.13;100.00
18858;BME280;9558;50.178;8.370;2022-11-20T03:35:37;97695.13;;;2.16;100.00
18858;BME280;9558;50.178;8.370;2022-11-20T03:38:03;97701.72;;;2.18;100.00
18858;BME280;9558;50.178;8.370;2022-11-20T03:40:30;97681.72;;;2.23;100.00
18858;BME280;9558;50.178;8.370;2022-11-20T03:42:56;97677.13;;;2.27;100.00
18858;BME280;9558;50.178;8.370;2022-11-20T03:45:22;97676.88;;;2.20;100.00
18858;BME280;9558;50.178;8.370;2022-11-20T03:47:49;97678.75;;;2.18;100.00
18858;BME280;9558;50.178;8.370;2022-11-20T03:50:17;97674.59;;;2.17;100.00
18858;BME280;9558;50.178;8.370;2022-11-20T03:52:43;97678.88;;;2.17;100.00
18858;BME280;9558;50.178;8.370;2022-11-20T03:55:10;97687.59;;;2.14;100.00
18858;BME280;9558;50.178;8.370;2022-11-20T03:57:36;97694.06;;;2.18;100.00
18858;BME280;9558;50.178;8.370;2022-11-20T04:00:03;97689.91;;;2.17;100.00
18858;BME280;9558;50.178;8.370;2022-11-20T04:02:30;97679.16;;;2.23;100.00
18858;BME280;9558;50.178;8.370;2022-11-20T04:04:56;97675.81;;;2.23;100.00
18858;BME280;9558;50.178;8.370;2022-11-20T04:07:24;97677.41;;;2.14;100.00
18858;BME280;9558;50.178;8.370;2022-11-20T04:09:51;97676.31;;;2.07;100.00
18858;BME280;9558;50.178;8.370;2022-11-20T04:12:17;97660.34;;;2.05;100.00
18858;BME280;9558;50.178;8.370;2022-11-20T04:14:44;97671.47;;;2.04;100.00
18858;BME280;9558;50.178;8.370;2022-11-20T04:17:10;97667.72;;;1.98;100.00
18858;BME280;9558;50.178;8.370;2022-11-20T04:19:36;97662.47;;;2.00;100.00
18858;BME280;9558;50.178;8.370;2022-11-20T04:22:03;97667.31;;;2.03;100.00
18858;BME280;9558;50.178;8.370;2022-11-20T04:24:31;97667.06;;;2.06;100.00
18858;BME280;9558;50.178;8.370;2022-11-20T04:26:57;97672.84;;;2.08;100.00
18858;BME280;9558;50.178;8.370;2022-11-20T04:29:23;97661.69;;;2.09;100.00
18858;BME280;9558;50.178;8.370;2022-11-20T04:31:50;97660.88;;;2.08;100.00
18858;BME280;9558;50.178;8.370;2022-11-20T04:34:16;97658.22;;;2.10;100.00
18858;BME280;9558;50.178;8.370;2022-11-20T04:36:43;97658.22;;;2.10;100.00
18858;BME280;9558;50.178;8.370;2022-11-20T04:39:14;97661.41;;;2.12;100.00
18858;BME280;9558;50.178;8.370;2022-11-20T04:41:42;97658.72;;;2.14;100.00
18858;BME280;9558;50.178;8.370;2022-11-20T04:44:09;97661.00;;;2.17;100.00
18858;BME280;9558;50.178;8.370;2022-11-20T04:46:38;97656.47;;;2.20;100.00
18858;BME280;9558;50.178;8.370;2022-11-20T04:49:05;97663.16;;;2.21;100.00
18858;BME280;9558;50.178;8.370;2022-11-20T04:51:31;97663.84;;;2.23;100.00
18858;BME280;9558;50.178;8.370;2022-11-20T04:53:58;97659.25;;;2.27;100.00
18858;BME280;9558;50.178;8.370;2022-11-20T04:56:25;97655.63;;;2.30;100.00
18858;BME280;9558;50.178;8.370;2022-11-20T04:58:53;97667.31;;;2.32;100.00
18858;BME280;9558;50.178;8.370;2022-11-20T05:01:21;97658.19;;;2.39;100.00
18858;BME280;9558;50.178;8.370;2022-11-20T05:03:48;97664.50;;;2.35;100.00
18858;BME280;9558;50.178;8.370;2022-11-20T05:06:17;97649.03;;;2.37;100.00
18858;BME280;9558;50.178;8.370;2022-11-20T05:08:44;97657.66;;;2.36;100.00
18858;BME280;9558;50.178;8.370;2022-11-20T05:11:12;97660.22;;;2.36;100.00
18858;BME280;9558;50.178;8.370;2022-11-20T05:13:38;97666.91;;;2.37;100.00
18858;BME280;9558;50.178;8.370;2022-11-20T05:16:08;97665.03;;;2.39;100.00
18858;BME280;9558;50.178;8.370;2022-11-20T05:18:35;97658.03;;;2.41;100.00
18858;BME280;9558;50.178;8.370;2022-11-20T05:21:02;97656.19;;;2.43;100.00
18858;BME280;9558;50.178;8.370;2022-11-20T05:23:30;97661.28;;;2.43;100.00
18858;BME280;9558;50.178;8.370;2022-11-20T05:25:57;97659.66;;;2.42;100.00
18858;BME280;9558;50.178;8.370;2022-11-20T05:28:25;97663.97;;;2.41;100.00
18858;BME280;9558;50.178;8.370;2022-11-20T05:30:51;97659.66;;;2.42;100.00
18858;BME280;9558;50.178;8.370;2022-11-20T05:33:19;97661.41;;;2.41;100.00
18858;BME280;9558;50.178;8.370;2022-11-20T05:35:46;97656.44;;;2.40;100.00
18858;BME280;9558;50.178;8.370;2022-11-20T05:38:13;97652.94;;;2.41;100.00
18858;BME280;9558;50.178;8.370;2022-11-20T05:40:40;97652.94;;;2.41;100.00
18858;BME280;9558;50.178;8.370;2022-11-20T05:43:06;97650.38;;;2.41;100.00
18858;BME280;9558;50.178;8.370;2022-11-20T05:45:32;97655.34;;;2.42;100.00
18858;BME280;9558;50.178;8.370;2022-11-20T05:47:59;97649.44;;;2.42;100.00
18858;BME280;9558;50.178;8.370;2022-11-20T05:50:28;97652.41;;;2.37;100.00
18858;BME280;9558;50.178;8.370;2022-11-20T05:52:54;97653.34;;;2.36;100.00
18858;BME280;9558;50.178;8.370;2022-11-20T05:55:21;97652.56;;;2.36;100.00
18858;BME280;9558;50.178;8.370;2022-11-20T05:57:47;97650.00;;;2.36;100.00
18858;BME280;9558;50.178;8.370;2022-11-20T06:00:15;97654.28;;;2.35;100.00
18858;BME280;9558;50.178;8.370;2022-11-20T06:02:41;97651.88;;;2.34;100.00
18858;BME280;9558;50.178;8.370;2022-11-20T06:05:08;97649.19;;;2.35;100.00
18858;BME280;9558;50.178;8.370;2022-11-20T06:07:36;97655.09;;;2.36;100.00
18858;BME280;9558;50.178;8.370;2022-11-20T06:10:02;97652.56;;;2.36;100.00
18858;BME280;9558;50.178;8.370;2022-11-20T06:12:31;97664.09;;;2.40;100.00
18858;BME280;9558;50.178;8.370;2022-11-20T06:14:57;97658.97;;;2.40;100.00
18858;BME280;9558;50.178;8.370;2022-11-20T06:17:24;97652.16;;;2.40;100.00
18858;BME280;9558;50.178;8.370;2022-11-20T06:19:51;97641.66;;;2.44;100.00
18858;BME280;9558;50.178;8.370;2022-11-20T06:22:17;97635.75;;;2.43;100.00
18858;BME280;9558;50.178;8.370;2022-11-20T06:24:45;97637.34;;;2.44;100.00
18858;BME280;9558;50.178;8.370;2022-11-20T06:27:11;97647.69;;;2.42;100.00
18858;BME280;9558;50.178;8.370;2022-11-20T06:29:38;97646.47;;;2.47;100.00
18858;BME280;9558;50.178;8.370;2022-11-20T06:32:04;97646.47;;;2.47;100.00
18858;BME280;9558;50.178;8.370;2022-11-20T06:34:30;97643.78;;;2.48;100.00
18858;BME280;9558;50.178;8.370;2022-11-20T06:36:57;97643.00;;;2.48;100.00
18858;BME280;9558;50.178;8.370;2022-11-20T06:39:23;97649.72;;;2.49;100.00
18858;BME280;9558;50.178;8.370;2022-11-20T06:41:51;97636.25;;;2.47;100.00
18858;BME280;9558;50.178;8.370;2022-11-20T06:44:17;97651.59;;;2.47;100.00
18858;BME280;9558;50.178;8.370;2022-11-20T06:46:44;97655.06;;;2.46;100.00
18858;BME280;9558;50.178;8.370;2022-11-20T06:49:10;97651.59;;;2.47;100.00
18858;BME280;9558;50.178;8.370;2022-11-20T06:51:37;97650.09;;;2.44;100.00
18858;BME280;9558;50.178;8.370;2022-11-20T06:54:04;97652.66;;;2.44;100.00
18858;BME280;9558;50.178;8.370;2022-11-20T06:56:30;97642.16;;;2.47;100.00
18858;BME280;9558;50.178;8.370;2022-11-20T06:58:58;97637.34;;;2.44;100.00
18858;BME280;9558;50.178;8.370;2022-11-20T07:01:24;97639.25;;;2.42;100.00
18858;BME280;9558;50.178;8.370;2022-11-20T07:03:51;97644.34;;;2.42;100.00
18858;BME280;9558;50.178;8.370;2022-11-20T07:06:17;97651.47;;;2.38;100.00
18858;BME280;9558;50.178;8.370;2022-11-20T07:08:44;97655.09;;;2.36;100.00
18858;BME280;9558;50.178;8.370;2022-11-20T07:11:12;97648.38;;;2.35;100.00
18858;BME280;9558;50.178;8.370;2022-11-20T07:13:39;97659.53;;;2.34;100.00
18858;BME280;9558;50.178;8.370;2022-11-20T07:16:07;97656.97;;;2.34;100.00
18858;BME280;9558;50.178;8.370;2022-11-20T07:18:34;97661.28;;;2.33;100.00
18858;BME280;9558;50.178;8.370;2022-11-20T07:21:01;97668.81;;;2.35;100.00
18858;BME280;9558;50.178;8.370;2022-11-20T07:23:28;97662.50;;;2.39;100.00
18858;BME280;9558;50.178;8.370;2022-11-20T07:25:54;97660.59;;;2.41;100.00
18858;BME280;9558;50.178;8.370;2022-11-20T07:28:21;97664.78;;;2.42;100.00
18858;BME280;9558;50.178;8.370;2022-11-20T07:30:49;97669.88;;;2.42;100.00
18858;BME280;9558;50.178;8.370;2022-11-20T07:33:18;97663.69;;;2.45;100.00
18858;BME280;9558;50.178;8.370;2022-11-20T07:35:44;97664.78;;;2.42;100.00
18858;BME280;9558;50.178;8.370;2022-11-20T07:38:11;97662.34;;;2.40;100.00
18858;BME280;9558;50.178;8.370;2022-11-20T07:40:37;97665.84;;;2.39;100.00
18858;BME280;9558;50.178;8.370;2022-11-20T07:43:04;97668.25;;;2.41;100.00
18858;BME280;9558;50.178;8.370;2022-11-20T07:45:30;97667.97;;;2.44;100.00
18858;BME280;9558;50.178;8.370;2022-11-20T07:47:57;97663.28;;;2.49;100.00
18858;BME280;9558;50.178;8.370;2022-11-20T07:50:24;97671.34;;;2.54;100.00
18858;BME280;9558;50.178;8.370;2022-11-20T07:52:51;97675.50;;;2.55;100.00
18858;BME280;9558;50.178;8.370;2022-11-20T07:55:18;97680.88;;;2.52;100.00
18858;BME280;9558;50.178;8.370;2022-11-20T07:57:44;97681.44;;;2.56;100.00
18858;BME280;9558;50.178;8.370;2022-11-20T08:00:12;97680.34;;;2.58;100.00
18858;BME280;9558;50.178;8.370;2022-11-20T08:02:39;97680.88;;;2.62;100.00
18858;BME280;9558;50.178;8.370;2022-11-20T08:05:07;97688.94;;;2.67;100.00
18858;BME280;9558;50.178;8.370;2022-11-20T08:07:38;97692.81;;;2.71;100.00
18858;BME280;9558;50.178;8.370;2022-11-20T08:10:06;97689.31;;;2.72;100.00
18858;BME280;9558;50.178;8.370;2022-11-20T08:12:33;97690.81;;;2.75;100.00
18858;BME280;9558;50.178;8.370;2022-11-20T08:15:17;97685.13;;;2.81;100.00
18858;BME280;9558;50.178;8.370;2022-11-20T08:17:44;97698.19;;;2.88;100.00
18858;BME280;9558;50.178;8.370;2022-11-20T08:20:10;97696.03;;;2.93;100.00
18858;BME280;9558;50.178;8.370;2022-11-20T08:22:38;97703.41;;;2.96;100.00
18858;BME280;9558;50.178;8.370;2022-11-20T08:25:04;97703.69;;;2.93;100.00
18858;BME280;9558;50.178;8.370;2022-11-20T08:27:31;97700.72;;;2.98;100.00
18858;BME280;9558;50.178;8.370;2022-11-20T08:29:58;97705.56;;;3.01;100.00
18858;BME280;9558;50.178;8.370;2022-11-20T08:32:24;97709.59;;;3.03;100.00
18858;BME280;9558;50.178;8.370;2022-11-20T08:34:51;97711.72;;;3.08;100.00
18858;BME280;9558;50.178;8.370;2022-11-20T08:37:17;97717.88;;;3.15;100.00
18858;BME280;9558;50.178;8.370;2022-11-20T08:39:45;97718.53;;;3.17;100.00
18858;BME280;9558;50.178;8.370;2022-11-20T08:42:12;97714.78;;;3.21;100.00
18858;BME280;9558;50.178;8.370;2022-11-20T08:44:38;97718.94;;;3.22;100.00
18858;BME280;9558;50.178;8.370;2022-11-20T08:47:05;97706.00;;;3.24;100.00
18858;BME280;9558;50.178;8.370;2022-11-20T08:49:31;97699.69;;;3.28;100.00
18858;BME280;9558;50.178;8.370;2022-11-20T08:51:57;97708.16;;;3.28;100.00
18858;BME280;9558;50.178;8.370;2022-11-20T08:54:24;97712.72;;;3.35;100.00
18858;BME280;9558;50.178;8.370;2022-11-20T08:56:52;97714.59;;;3.33;100.00
18858;BME280;9558;50.178;8.370;2022-11-20T08:59:18;97718.91;;;3.32;100.00
18858;BME280;9558;50.178;8.370;2022-11-20T09:01:44;97707.59;;;3.35;100.00
18858;BME280;9558;50.178;8.370;2022-11-20T09:04:11;97723.31;;;3.40;100.00
18858;BME280;9558;50.178;8.370;2022-11-20T09:06:39;97722.91;;;3.44;100.00
18858;BME280;9558;50.178;8.370;2022-11-20T09:09:06;97726.66;;;3.50;100.00
18858;BME280;9558;50.178;8.370;2022-11-20T09:11:32;97732.28;;;3.54;100.00
18858;BME280;9558;50.178;8.370;2022-11-20T09:14:01;97720.69;;;3.59;100.00
18858;BME280;9558;50.178;8.370;2022-11-20T09:16:27;97721.09;;;3.65;100.00
18858;BME280;9558;50.178;8.370;2022-11-20T09:18:54;97718.22;;;3.68;100.00
18858;BME280;9558;50.178;8.370;2022-11-20T09:21:20;97716.72;;;3.75;100.00
18858;BME280;9558;50.178;8.370;2022-11-20T09:23:48;97712.94;;;3.79;100.00
18858;BME280;9558;50.178;8.370;2022-11-20T09:26:14;97719.09;;;3.86;100.00
18858;BME280;9558;50.178;8.370;2022-11-20T09:28:41;97719.19;;;3.94;100.00
18858;BME280;9558;50.178;8.370;2022-11-20T09:31:15;97720.47;;;3.98;100.00
18858;BME280;9558;50.178;8.370;2022-11-20T09:33:43;97719.91;;;4.05;100.00
18858;BME280;9558;50.178;8.370;2022-11-20T09:36:10;97713.91;;;4.14;100.00
18858;BME280;9558;50.178;8.370;2022-11-20T09:38:36;97709.03;;;4.21;100.00
18858;BME280;9558;50.178;8.370;2022-11-20T09:41:05;97710.84;;;4.28;100.00
18858;BME280;9558;50.178;8.370;2022-11-20T09:43:41;97712.38;;;4.39;100.00
18858;BME280;9558;50.178;8.370;2022-11-20T09:46:14;97712.75;;;4.44;100.00
18858;BME280;9558;50.178;8.370;2022-11-20T09:48:51;97715.22;;;4.54;100.00
18858;BME280;9558;50.178;8.370;2022-11-20T09:51:31;97716.25;;;4.61;100.00
18858;BME280;9558;50.178;8.370;2022-11-20T09:54:10;97712.88;;;4.61;100.00
18858;BME280;9558;50.178;8.370;2022-11-20T09:56:42;97720.41;;;4.62;100.00
18858;BME280;9558;50.178;8.370;2022-11-20T09:59:21;97710.84;;;4.64;100.00
18858;BME280;9558;50.178;8.370;2022-11-20T10:01:54;97716.31;;;4.70;100.00
18858;BME280;9558;50.178;8.370;2022-11-20T10:04:22;97717.56;;;4.65;100.00
18858;BME280;9558;50.178;8.370;2022-11-20T10:06:53;97708.91;;;4.66;100.00
18858;BME280;9558;50.178;8.370;2022-11-20T10:09:27;97707.69;;;4.71;100.00
18858;BME280;9558;50.178;8.370;2022-11-20T10:12:05;97714.91;;;4.75;100.00
18858;BME280;9558;50.178;8.370;2022-11-20T10:14:41;97711.25;;;4.78;100.00
18858;BME280;9558;50.178;8.370;2022-11-20T10:17:24;97716.59;;;4.84;100.00
18858;BME280;9558;50.178;8.370;2022-11-20T10:20:02;97716.28;;;4.88;100.00
18858;BME280;9558;50.178;8.370;2022-11-20T10:22:43;97704.63;;;4.93;100.00
18858;BME280;9558;50.178;8.370;2022-11-20T10:25:14;97697.56;;;4.95;100.00
18858;BME280;9558;50.178;8.370;2022-11-20T10:28:10;97692.66;;;5.02;100.00
18858;BME280;9558;50.178;8.370;2022-11-20T10:30:43;97687.00;;;4.98;100.00
18858;BME280;9558;50.178;8.370;2022-11-20T10:33:15;97683.50;;;4.99;100.00
18858;BME280;9558;50.178;8.370;2022-11-20T10:35:45;97683.03;;;4.96;100.00
18858;BME280;9558;50.178;8.370;2022-11-20T10:38:19;97687.84;;;4.99;100.00
18858;BME280;9558;50.178;8.370;2022-11-20T10:40:49;97679.31;;;4.98;100.00
18858;BME280;9558;50.178;8.370;2022-11-20T10:43:21;97678.22;;;5.01;100.00
18858;BME280;9558;50.178;8.370;2022-11-20T10:45:53;97664.00;;;5.07;100.00
18858;BME280;9558;50.178;8.370;2022-11-20T10:48:25;97673.75;;;5.03;100.00
18858;BME280;9558;50.178;8.370;2022-11-20T10:51:03;97670.53;;;5.01;100.00
18858;BME280;9558;50.178;8.370;2022-11-20T10:53:45;97670.53;;;5.01;100.00
18858;BME280;9558;50.178;8.370;2022-11-20T10:56:19;97663.63;;;5.01;100.00
18858;BME280;9558;50.178;8.370;2022-11-20T10:59:04;97676.44;;;5.01;100.00
18858;BME280;9558;50.178;8.370;2022-11-20T11:01:40;97677.75;;;5.06;100.00
18858;BME280;9558;50.178;8.370;2022-11-20T11:04:18;97674.75;;;5.10;100.00
18858;BME280;9558;50.178;8.370;2022-11-20T11:06:49;97669.78;;;5.09;100.00
18858;BME280;9558;50.178;8.370;2022-11-20T11:09:21;97674.75;;;5.10;100.00
18858;BME280;9558;50.178;8.370;2022-11-20T11:11:53;97674.75;;;5.10;100.00
18858;BME280;9558;50.178;8.370;2022-11-20T11:14:20;97666.91;;;5.12;100.00
18858;BME280;9558;50.178;8.370;2022-11-20T11:16:51;97666.91;;;5.12;100.00
18858;BME280;9558;50.178;8.370;2022-11-20T11:19:19;97670.13;;;5.14;100.00
18858;BME280;9558;50.178;8.370;2022-11-20T11:21:47;97666.94;;;5.20;100.00
18858;BME280;9558;50.178;8.370;2022-11-20T11:24:20;97660.53;;;5.16;100.00
18858;BME280;9558;50.178;8.370;2022-11-20T11:26:52;97656.97;;;5.17;100.00
18858;BME280;9558;50.178;8.370;2022-11-20T11:29:21;97654.94;;;5.21;100.00
18858;BME280;9558;50.178;8.370;2022-11-20T11:31:47;97649.00;;;5.28;100.00
18858;BME280;9558;50.178;8.370;2022-11-20T11:34:15;97647.13;;;5.39;100.00
18858;BME280;9558;50.178;8.370;2022-11-20T11:36:52;97637.72;;;5.47;100.00
18858;BME280;9558;50.178;8.370;2022-11-20T11:39:21;97636.63;;;5.58;100.00
18858;BME280;9558;50.178;8.370;2022-11-20T11:41:49;97629.56;;;5.68;100.00
18858;BME280;9558;50.178;8.370;2022-11-20T11:44:18;97635.06;;;5.74;100.00
18858;BME280;9558;50.178;8.370;2022-11-20T11:47:04;97634.91;;;5.83;100.00
18858;BME280;9558;50.178;8.370;2022-11-20T11:49:31;97629.94;;;5.90;100.00
18858;BME280;9558;50.178;8.370;2022-11-20T11:52:05;97621.59;;;5.96;100.00
18858;BME280;9558;50.178;8.370;2022-11-20T11:54:38;97621.66;;;6.04;100.00
18858;BME280;9558;50.178;8.370;2022-11-20T11:57:12;97621.78;;;6.11;100.00
18858;BME280;9558;50.178;8.370;2022-11-20T11:59:50;97618.28;;;6.12;100.00
18858;BME280;9558;50.178;8.370;2022-11-20T12:02:29;97600.91;;;6.14;100.00
18858;BME280;9558;50.178;8.370;2022-11-20T12:04:59;97598.34;;;6.14;100.00
18858;BME280;9558;50.178;8.370;2022-11-20T12:07:38;97601.91;;;6.13;100.00
18858;BME280;9558;50.178;8.370;2022-11-20T12:10:14;97593.88;;;6.16;100.00
18858;BME280;9558;50.178;8.370;2022-11-20T12:12:44;97590.81;;;6.21;100.00
18858;BME280;9558;50.178;8.370;2022-11-20T12:15:14;97605.44;;;6.20;100.00
18858;BME280;9558;50.178;8.370;2022-11-20T12:17:42;97602.53;;;6.23;100.00
18858;BME280;9558;50.178;8.370;2022-11-20T12:20:13;97602.69;;;6.22;100.00
18858;BME280;9558;50.178;8.370;2022-11-20T12:22:48;97606.22;;;6.21;100.00
18858;BME280;9558;50.178;8.370;2022-11-20T12:25:20;97603.31;;;6.16;100.00
18858;BME280;9558;50.178;8.370;2022-11-20T12:31:02;97604.94;;;6.17;100.00
18858;BME280;9558;50.178;8.370;2022-11-20T12:33:49;97602.38;;;6.09;100.00
18858;BME280;9558;50.178;8.370;2022-11-20T12:36:29;97607.66;;;6.07;100.00
18858;BME280;9558;50.178;8.370;2022-11-20T12:39:13;97590.34;;;6.01;100.00
18858;BME280;9558;50.178;8.370;2022-11-20T12:42:01;97598.50;;;5.96;100.00
18858;BME280;9558;50.178;8.370;2022-11-20T12:45:01;97583.06;;;5.88;100.00
18858;BME280;9558;50.178;8.370;2022-11-20T12:48:08;97586.59;;;5.79;100.00
18858;BME280;9558;50.178;8.370;2022-11-20T12:50:45;97590.13;;;5.69;100.00
18858;BME280;9558;50.178;8.370;2022-11-20T12:53:24;97581.63;;;5.69;100.00
18858;BME280;9558;50.178;8.370;2022-11-20T12:55:58;97584.00;;;5.62;100.00
18858;BME280;9558;50.178;8.370;2022-11-20T12:58:34;97591.72;;;5.62;100.00
18858;BME280;9558;50.178;8.370;2022-11-20T13:01:19;97590.09;;;5.61;100.00
18858;BME280;9558;50.178;8.370;2022-11-20T13:04:08;97587.69;;;5.60;100.00
18858;BME280;9558;50.178;8.370;2022-11-20T13:06:39;97577.91;;;5.63;100.00
18858;BME280;9558;50.178;8.370;2022-11-20T13:09:09;97572.78;;;5.63;100.00
18858;BME280;9558;50.178;8.370;2022-11-20T13:11:43;97567.97;;;5.60;100.00
18858;BME280;9558;50.178;8.370;2022-11-20T13:14:24;97568.94;;;5.59;100.00
18858;BME280;9558;50.178;8.370;2022-11-20T13:16:55;97565.53;;;5.59;100.00
18858;BME280;9558;50.178;8.370;2022-11-20T13:19:25;97564.25;;;5.63;100.00
18858;BME280;9558;50.178;8.370;2022-11-20T13:21:52;97562.84;;;5.60;100.00
18858;BME280;9558;50.178;8.370;2022-11-20T13:24:25;97561.06;;;5.61;100.00